createdAt,value
2017-07-25T00:01:50.232Z,94400.22
2017-07-25T00:04:17.838Z,94405.24
2017-07-25T00:06:45.430Z,94403.69
2017-07-25T00:09:13.139Z,94388.58
2017-07-25T00:11:40.698Z,94399.66
2017-07-25T00:14:08.384Z,94391.43
2017-07-25T00:16:35.974Z,94398.84
2017-07-25T00:19:03.850Z,94388.63
2017-07-25T00:21:31.767Z,94393.13
2017-07-25T00:23:59.418Z,94383.22
2017-07-25T00:26:27.044Z,94381.52
2017-07-25T00:28:55.524Z,94390.77
2017-07-25T00:31:23.135Z,94382.28
2017-07-25T00:33:50.839Z,94380.77
2017-07-25T00:36:18.718Z,94385.05
2017-07-25T00:38:46.510Z,94384.14
2017-07-25T00:41:14.360Z,94367.35
2017-07-25T00:43:41.936Z,94355.41
2017-07-25T00:46:09.575Z,94355.69
2017-07-25T00:48:37.313Z,94369.02
2017-07-25T00:51:04.976Z,94349.73
2017-07-25T00:53:32.878Z,94353.77
2017-07-25T00:56:00.470Z,94360.61
2017-07-25T00:58:28.180Z,94346.58
2017-07-25T01:00:55.935Z,94352.08
2017-07-25T01:03:23.563Z,94339.08
2017-07-25T01:05:51.349Z,94321.12
2017-07-25T01:08:18.933Z,94333.13
2017-07-25T01:10:46.481Z,94328.26
2017-07-25T01:13:14.028Z,94333.77
2017-07-25T01:15:42.236Z,94321.96
2017-07-25T01:18:09.855Z,94338.53
2017-07-25T01:20:37.433Z,94344.56
2017-07-25T01:23:05.682Z,94342.43
2017-07-25T01:25:33.345Z,94351.98
2017-07-25T01:28:00.951Z,94337.27
2017-07-25T01:30:28.643Z,94331.37
2017-07-25T01:32:56.226Z,94325.09
2017-07-25T01:35:23.816Z,94333.16
2017-07-25T01:37:51.475Z,94317.17
2017-07-25T01:40:19.111Z,94325.09
2017-07-25T01:42:46.716Z,94320.02
2017-07-25T01:45:14.324Z,94334.39
2017-07-25T01:47:41.929Z,94316.84
2017-07-25T01:50:09.546Z,94304.78
2017-07-25T01:52:37.232Z,94312.19
2017-07-25T01:55:04.886Z,94313.07
2017-07-25T01:57:32.458Z,94307.66
2017-07-25T02:00:00.100Z,94315.80
2017-07-25T02:02:28.566Z,94312.11
2017-07-25T02:04:56.125Z,94307.70
2017-07-25T02:07:23.894Z,94315.84
2017-07-25T02:09:51.501Z,94316.95
2017-07-25T02:12:19.093Z,94315.19
2017-07-25T02:14:46.739Z,94308.08
2017-07-25T02:17:14.975Z,94299.66
2017-07-25T02:19:43.555Z,94298.38
2017-07-25T02:22:11.129Z,94303.95
2017-07-25T02:24:38.769Z,94303.78
2017-07-25T02:27:06.472Z,94308.00
2017-07-25T02:29:34.137Z,94294.44
2017-07-25T02:32:01.785Z,94306.42
2017-07-25T02:34:29.561Z,94307.55
2017-07-25T02:36:57.448Z,94302.02
2017-07-25T02:39:25.274Z,94303.59
2017-07-25T02:41:52.899Z,94289.50
2017-07-25T02:44:20.536Z,94296.13
2017-07-25T02:46:48.240Z,94296.35
2017-07-25T02:49:16.329Z,94294.36
2017-07-25T02:51:43.973Z,94295.22
2017-07-25T02:54:11.614Z,94295.27
2017-07-25T02:56:39.235Z,94285.76
2017-07-25T02:59:06.845Z,94298.60
2017-07-25T03:01:34.592Z,94286.13
2017-07-25T03:04:02.283Z,94283.59
2017-07-25T03:06:30.140Z,94277.55
2017-07-25T03:08:57.734Z,94260.44
2017-07-25T03:11:25.509Z,94268.09
2017-07-25T03:13:54.068Z,94278.00
2017-07-25T03:16:21.719Z,94273.92
2017-07-25T03:18:49.398Z,94272.58
2017-07-25T03:21:17.237Z,94257.00
2017-07-25T03:24:03.932Z,94279.20
2017-07-25T03:26:31.578Z,94277.86
2017-07-25T03:28:59.245Z,94274.23
2017-07-25T03:31:27.134Z,94264.78
2017-07-25T03:33:54.742Z,94268.50
2017-07-25T03:36:22.356Z,94267.81
2017-07-25T03:38:50.009Z,94271.50
2017-07-25T03:41:17.569Z,94270.70
2017-07-25T03:43:45.416Z,94270.06
2017-07-25T03:46:13.526Z,94269.00
2017-07-25T03:48:41.151Z,94273.42
2017-07-25T03:51:08.745Z,94266.88
2017-07-25T03:53:36.392Z,94270.45
2017-07-25T03:56:04.919Z,94258.72
2017-07-25T03:58:32.491Z,94271.02
2017-07-25T04:01:00.102Z,94270.33
2017-07-25T04:03:27.771Z,94281.02
2017-07-25T04:05:55.382Z,94262.30
2017-07-25T04:08:23.943Z,94278.83
2017-07-25T04:10:52.255Z,94280.16
2017-07-25T04:13:20.788Z,94271.00
2017-07-25T04:15:48.661Z,94282.03
2017-07-25T04:18:16.356Z,94267.63
2017-07-25T04:20:47.480Z,94261.83
2017-07-25T04:23:15.166Z,94283.37
2017-07-25T04:25:43.614Z,94274.03
2017-07-25T04:28:14.031Z,94285.34
2017-07-25T04:30:43.963Z,94287.33
2017-07-25T04:33:12.559Z,94297.67
2017-07-25T04:35:43.252Z,94292.55
2017-07-25T04:38:23.313Z,94295.59
2017-07-25T04:40:52.717Z,94287.91
2017-07-25T04:43:29.018Z,94294.88
2017-07-25T04:45:56.822Z,94292.97
2017-07-25T04:48:24.629Z,94285.88
2017-07-25T04:50:52.204Z,94293.11
2017-07-25T04:53:19.833Z,94306.44
2017-07-25T04:55:47.468Z,94294.84
2017-07-25T04:58:15.013Z,94317.50
2017-07-25T05:00:42.989Z,94321.94
2017-07-25T05:03:10.876Z,94307.73
2017-07-25T05:05:38.752Z,94306.28
2017-07-25T05:08:06.582Z,94310.56
2017-07-25T05:10:34.136Z,94300.98
2017-07-25T05:13:01.730Z,94308.00
2017-07-25T05:15:29.301Z,94303.85
2017-07-25T05:18:04.651Z,94312.56
2017-07-25T05:20:32.262Z,94312.92
2017-07-25T05:22:59.851Z,94307.69
2017-07-25T05:25:27.486Z,94299.28
2017-07-25T05:27:55.794Z,94306.00
2017-07-25T05:30:23.391Z,94297.59
2017-07-25T05:32:51.155Z,94290.87
2017-07-25T05:35:18.788Z,94302.13
2017-07-25T05:37:46.483Z,94300.77
2017-07-25T05:40:15.002Z,94291.31
2017-07-25T05:42:42.596Z,94295.22
2017-07-25T05:45:10.193Z,94303.41
2017-07-25T05:47:37.852Z,94296.91
2017-07-25T05:50:05.469Z,94306.92
2017-07-25T05:52:33.085Z,94303.16
2017-07-25T05:55:00.648Z,94303.64
2017-07-25T05:57:28.466Z,94297.44
2017-07-25T05:59:56.112Z,94280.52
2017-07-25T06:02:23.746Z,94285.95
2017-07-25T06:04:51.312Z,94289.47
2017-07-25T06:07:18.895Z,94287.60
2017-07-25T06:09:47.069Z,94284.22
2017-07-25T06:12:14.651Z,94294.00
2017-07-25T06:14:42.233Z,94294.52
2017-07-25T06:17:10.690Z,94285.14
2017-07-25T06:19:38.248Z,94288.98
2017-07-25T06:22:05.817Z,94300.25
2017-07-25T06:24:33.433Z,94290.82
2017-07-25T06:27:01.059Z,94296.28
2017-07-25T06:29:28.618Z,94303.12
2017-07-25T06:31:56.203Z,94318.92
2017-07-25T06:34:23.772Z,94313.80
2017-07-25T06:36:51.421Z,94317.62
2017-07-25T06:39:19.080Z,94316.59
2017-07-25T06:41:46.856Z,94308.11
2017-07-25T06:44:14.624Z,94302.14
2017-07-25T06:46:42.258Z,94304.61
2017-07-25T06:49:09.816Z,94291.92
2017-07-25T06:51:37.642Z,94306.73
2017-07-25T06:54:05.239Z,94293.80
2017-07-25T06:56:32.820Z,94298.83
2017-07-25T06:59:00.842Z,94293.97
2017-07-25T07:01:28.420Z,94289.85
2017-07-25T07:03:56.016Z,94299.63
2017-07-25T07:06:23.554Z,94290.70
2017-07-25T07:08:51.194Z,94285.41
2017-07-25T07:11:18.736Z,94290.39
2017-07-25T07:13:47.270Z,94284.42
2017-07-25T07:16:14.856Z,94281.08
2017-07-25T07:18:42.631Z,94276.78
2017-07-25T07:21:10.226Z,94273.38
2017-07-25T07:23:38.219Z,94269.91
2017-07-25T07:26:05.786Z,94273.81
2017-07-25T07:28:33.400Z,94270.98
2017-07-25T07:31:01.017Z,94280.03
2017-07-25T07:33:28.766Z,94280.55
2017-07-25T07:35:56.370Z,94273.75
2017-07-25T07:38:23.975Z,94268.81
2017-07-25T07:40:51.602Z,94265.53
2017-07-25T07:43:19.243Z,94259.84
2017-07-25T07:45:46.837Z,94265.48
2017-07-25T07:48:14.422Z,94261.34
2017-07-25T07:50:42.262Z,94263.14
2017-07-25T07:53:09.875Z,94258.93
2017-07-25T07:55:37.462Z,94255.32
2017-07-25T07:58:05.889Z,94264.73
2017-07-25T08:00:33.572Z,94254.32
2017-07-25T08:03:01.153Z,94258.28
2017-07-25T08:05:28.935Z,94239.23
2017-07-25T08:07:56.522Z,94262.61
2017-07-25T08:10:24.273Z,94259.26
2017-07-25T08:12:51.866Z,94251.41
2017-07-25T08:15:19.469Z,94254.06
2017-07-25T08:17:47.228Z,94251.26
2017-07-25T08:20:14.779Z,94249.72
2017-07-25T08:22:42.394Z,94239.19
2017-07-25T08:25:09.988Z,94246.44
2017-07-25T08:27:37.511Z,94240.70
2017-07-25T08:30:07.846Z,94240.20
2017-07-25T08:32:35.506Z,94224.06
2017-07-25T08:35:03.058Z,94224.91
2017-07-25T08:37:30.727Z,94218.34
2017-07-25T08:39:58.281Z,94222.16
2017-07-25T08:42:25.867Z,94209.73
2017-07-25T08:44:53.486Z,94224.45
2017-07-25T08:47:21.225Z,94230.80
2017-07-25T08:49:48.838Z,94235.86
2017-07-25T08:52:16.433Z,94245.78
2017-07-25T08:54:43.957Z,94271.50
2017-07-25T08:57:11.551Z,94317.81
2017-07-25T08:59:39.834Z,94296.55
2017-07-25T09:02:07.458Z,94327.48
2017-07-25T09:04:35.096Z,94352.00
2017-07-25T09:07:02.709Z,94354.44
2017-07-25T09:09:30.320Z,94364.38
2017-07-25T09:11:57.839Z,94364.36
2017-07-25T09:14:25.401Z,94360.25
2017-07-25T09:16:52.981Z,94369.80
2017-07-25T09:19:20.591Z,94380.99
2017-07-25T09:21:48.217Z,94398.17
2017-07-25T09:24:15.802Z,94402.45
2017-07-25T09:26:43.390Z,94381.30
2017-07-25T09:29:10.986Z,94359.94
2017-07-25T09:31:38.579Z,94369.73
2017-07-25T09:34:06.128Z,94382.84
2017-07-25T09:36:33.723Z,94373.11
2017-07-25T09:39:01.307Z,94368.91
2017-07-25T09:41:28.825Z,94358.14
2017-07-25T09:43:56.344Z,94350.95
2017-07-25T09:46:25.129Z,94342.02
2017-07-25T09:48:52.736Z,94328.33
2017-07-25T09:51:21.446Z,94342.33
2017-07-25T09:53:48.986Z,94349.89
2017-07-25T09:56:16.527Z,94348.27
2017-07-25T09:58:44.354Z,94347.94
2017-07-25T10:01:12.139Z,94343.13
2017-07-25T10:03:39.747Z,94335.16
2017-07-25T10:06:07.302Z,94325.05
2017-07-25T10:08:34.907Z,94317.67
2017-07-25T10:11:02.470Z,94303.50
2017-07-25T10:13:30.013Z,94290.84
2017-07-25T10:15:57.586Z,94295.82
2017-07-25T10:18:25.190Z,94286.91
2017-07-25T10:20:52.791Z,94280.78
2017-07-25T10:23:20.377Z,94266.41
2017-07-25T10:25:48.035Z,94269.75
2017-07-25T10:28:15.607Z,94273.47
2017-07-25T10:30:43.234Z,94269.07
2017-07-25T10:33:10.885Z,94268.31
2017-07-25T10:35:38.461Z,94255.45
2017-07-25T10:38:06.051Z,94262.73
2017-07-25T10:40:33.610Z,94260.11
2017-07-25T10:43:01.182Z,94246.70
2017-07-25T10:45:28.762Z,94229.78
2017-07-25T10:47:56.348Z,94229.17
2017-07-25T10:50:24.163Z,94226.61
2017-07-25T10:52:51.780Z,94215.05
2017-07-25T10:55:19.667Z,94211.41
2017-07-25T10:57:47.224Z,94206.89
2017-07-25T11:00:14.982Z,94207.02
2017-07-25T11:02:42.737Z,94214.41
2017-07-25T11:05:10.337Z,94210.34
2017-07-25T11:07:37.942Z,94206.89
2017-07-25T11:10:05.706Z,94206.86
2017-07-25T11:12:33.305Z,94213.27
2017-07-25T11:15:01.136Z,94198.50
2017-07-25T11:17:28.668Z,94192.66
2017-07-25T11:19:57.020Z,94185.97
2017-07-25T11:22:24.603Z,94189.66
2017-07-25T11:24:52.167Z,94181.84
2017-07-25T11:27:19.904Z,94175.09
2017-07-25T11:29:47.523Z,94166.70
2017-07-25T11:32:15.102Z,94166.84
2017-07-25T11:34:43.339Z,94157.71
2017-07-25T11:37:10.941Z,94160.34
2017-07-25T11:39:38.543Z,94152.68
2017-07-25T11:42:06.090Z,94153.47
2017-07-25T11:44:33.673Z,94153.80
2017-07-25T11:47:01.264Z,94153.00
2017-07-25T11:49:29.120Z,94161.66
2017-07-25T11:51:56.644Z,94158.84
2017-07-25T11:54:24.223Z,94154.61
2017-07-25T11:56:51.737Z,94150.67
2017-07-25T11:59:19.247Z,94134.56
2017-07-25T12:01:46.897Z,94142.29
2017-07-25T12:04:14.447Z,94142.05
2017-07-25T12:06:41.958Z,94144.72
2017-07-25T12:09:09.544Z,94143.84
2017-07-25T12:11:37.298Z,94153.24
2017-07-25T12:14:05.051Z,94154.03
2017-07-25T12:16:32.648Z,94150.47
2017-07-25T12:19:00.191Z,94157.68
2017-07-25T12:21:45.162Z,94154.16
2017-07-25T12:24:13.506Z,94158.45
2017-07-25T12:26:41.021Z,94152.29
2017-07-25T12:29:08.576Z,94173.06
2017-07-25T12:31:36.269Z,94187.36
2017-07-25T12:34:03.810Z,94193.13
2017-07-25T12:36:31.862Z,94174.58
2017-07-25T12:38:59.422Z,94182.62
2017-07-25T12:41:26.963Z,94197.99
2017-07-25T12:43:54.505Z,94200.37
2017-07-25T12:46:22.072Z,94204.90
2017-07-25T12:48:49.586Z,94203.73
2017-07-25T12:51:17.293Z,94194.13
2017-07-25T12:53:45.193Z,94183.47
2017-07-25T12:56:12.764Z,94183.00
2017-07-25T12:58:40.351Z,94175.50
2017-07-25T13:01:19.606Z,94181.92
2017-07-25T13:03:47.392Z,94181.84
2017-07-25T13:06:15.262Z,94186.79
2017-07-25T13:08:42.829Z,94187.27
2017-07-25T13:11:10.591Z,94175.73
2017-07-25T13:13:38.437Z,94170.95
2017-07-25T13:16:06.038Z,94173.12
2017-07-25T13:18:33.605Z,94172.34
2017-07-25T13:21:01.186Z,94156.41
2017-07-25T13:23:28.782Z,94156.80
2017-07-25T13:25:56.852Z,94148.74
2017-07-25T13:28:24.670Z,94157.13
2017-07-25T13:30:52.877Z,94170.83
2017-07-25T13:33:20.503Z,94172.80
2017-07-25T13:35:48.091Z,94170.01
2017-07-25T13:38:15.718Z,94172.14
2017-07-25T13:40:43.253Z,94175.85
2017-07-25T13:43:10.994Z,94179.97
2017-07-25T13:45:38.594Z,94179.09
2017-07-25T13:48:06.224Z,94173.91
2017-07-25T13:50:33.801Z,94168.69
2017-07-25T13:53:01.669Z,94147.01
2017-07-25T13:55:29.346Z,94143.86
2017-07-25T13:57:56.945Z,94143.55
2017-07-25T14:00:24.595Z,94143.12
2017-07-25T14:02:52.405Z,94145.52
2017-07-25T14:05:20.581Z,94145.25
2017-07-25T14:07:48.150Z,94142.20
2017-07-25T14:10:15.733Z,94137.86
2017-07-25T14:12:43.343Z,94131.91
2017-07-25T14:15:11.369Z,94142.14
2017-07-25T14:17:38.978Z,94127.00
2017-07-25T14:20:06.603Z,94124.41
2017-07-25T14:22:34.657Z,94112.50
2017-07-25T14:25:02.316Z,94111.45
2017-07-25T14:27:29.926Z,94107.81
2017-07-25T14:29:57.560Z,94100.55
2017-07-25T14:32:25.998Z,94098.54
2017-07-25T14:34:53.536Z,94095.25
2017-07-25T14:37:21.080Z,94091.07
2017-07-25T14:39:48.661Z,94083.73
2017-07-25T14:42:16.442Z,94093.77
2017-07-25T14:44:44.039Z,94105.23
2017-07-25T14:47:11.603Z,94105.98
2017-07-25T14:49:39.167Z,94103.30
2017-07-25T14:52:06.820Z,94105.73
2017-07-25T14:54:34.425Z,94115.63
2017-07-25T14:57:02.683Z,94128.34
2017-07-25T14:59:31.375Z,94132.37
2017-07-25T15:01:59.217Z,94132.77
2017-07-25T15:04:26.773Z,94149.49
2017-07-25T15:06:54.332Z,94162.31
2017-07-25T15:09:21.940Z,94192.47
2017-07-25T15:11:49.473Z,94196.33
2017-07-25T15:14:17.038Z,94208.03
2017-07-25T15:16:44.624Z,94219.30
2017-07-25T15:19:12.182Z,94216.37
2017-07-25T15:21:40.557Z,94245.85
2017-07-25T15:24:08.159Z,94264.47
2017-07-25T15:26:35.771Z,94320.38
2017-07-25T15:29:03.468Z,94375.94
2017-07-25T15:31:31.776Z,94445.01
2017-07-25T15:33:59.336Z,94429.69
2017-07-25T15:36:26.971Z,94428.96
2017-07-25T15:38:54.584Z,94413.50
2017-07-25T15:41:22.726Z,94424.33
2017-07-25T15:43:50.294Z,94450.48
2017-07-25T15:46:17.865Z,94463.59
2017-07-25T15:48:45.444Z,94442.52
2017-07-25T15:51:13.049Z,94437.02
2017-07-25T15:53:40.958Z,94438.76
2017-07-25T15:56:09.258Z,94429.27
2017-07-25T15:58:36.850Z,94437.64
2017-07-25T16:01:04.449Z,94438.95
2017-07-25T16:03:32.036Z,94450.32
2017-07-25T16:05:59.793Z,94453.80
2017-07-25T16:08:27.380Z,94461.92
2017-07-25T16:10:54.914Z,94445.03
2017-07-25T16:13:22.520Z,94434.08
2017-07-25T16:15:50.211Z,94440.56
2017-07-25T16:18:17.950Z,94447.23
2017-07-25T16:20:46.316Z,94447.63
2017-07-25T16:23:14.363Z,94440.76
2017-07-25T16:25:41.899Z,94446.13
2017-07-25T16:28:09.462Z,94428.16
2017-07-25T16:30:37.896Z,94407.03
2017-07-25T16:33:05.511Z,94392.81
2017-07-25T16:35:33.123Z,94402.27
2017-07-25T16:38:00.699Z,94401.55
2017-07-25T16:40:28.470Z,94415.98
2017-07-25T16:42:56.224Z,94432.64
2017-07-25T16:45:23.815Z,94432.95
2017-07-25T16:47:51.479Z,94448.33
2017-07-25T16:50:19.001Z,94444.30
2017-07-25T16:52:47.315Z,94431.47
2017-07-25T16:55:16.446Z,94436.77
2017-07-25T16:57:44.011Z,94439.23
2017-07-25T17:00:11.864Z,94444.09
2017-07-25T17:02:39.418Z,94453.28
2017-07-25T17:05:06.984Z,94454.77
2017-07-25T17:07:34.610Z,94453.58
2017-07-25T17:10:02.236Z,94456.87
2017-07-25T17:12:29.761Z,94466.72
2017-07-25T17:14:57.377Z,94467.48
2017-07-25T17:17:25.118Z,94457.86
2017-07-25T17:19:52.688Z,94462.16
2017-07-25T17:22:20.276Z,94469.19
2017-07-25T17:24:47.882Z,94466.39
2017-07-25T17:27:15.473Z,94476.30
2017-07-25T17:29:43.090Z,94479.10
2017-07-25T17:32:10.678Z,94492.62
2017-07-25T17:34:38.226Z,94494.17
2017-07-25T17:37:05.783Z,94494.73
2017-07-25T17:39:33.370Z,94493.60
2017-07-25T17:42:00.948Z,94487.56
2017-07-25T17:44:28.502Z,94486.12
2017-07-25T17:46:56.265Z,94474.13
2017-07-25T17:49:24.611Z,94474.91
2017-07-25T17:51:52.203Z,94479.91
2017-07-25T17:54:20.114Z,94487.55
2017-07-25T17:56:47.907Z,94495.98
2017-07-25T17:59:17.344Z,94495.89
2017-07-25T18:01:45.061Z,94469.75
2017-07-25T18:04:13.682Z,94487.75
2017-07-25T18:06:41.297Z,94486.06
2017-07-25T18:09:08.921Z,94484.56
2017-07-25T18:11:37.187Z,94480.55
2017-07-25T18:14:04.868Z,94477.75
2017-07-25T18:16:32.549Z,94494.36
2017-07-25T18:19:00.360Z,94503.80
2017-07-25T18:21:27.969Z,94511.34
2017-07-25T18:23:55.667Z,94520.70
2017-07-25T18:26:23.714Z,94515.94
2017-07-25T18:28:51.308Z,94500.65
2017-07-25T18:31:18.915Z,94490.41
2017-07-25T18:33:46.571Z,94478.92
2017-07-25T18:36:14.223Z,94489.20
2017-07-25T18:38:41.919Z,94500.22
2017-07-25T18:41:09.491Z,94519.14
2017-07-25T18:43:37.266Z,94514.67
2017-07-25T18:46:05.493Z,94511.63
2017-07-25T18:48:33.028Z,94507.16
2017-07-25T18:51:01.380Z,94532.77
2017-07-25T18:53:28.986Z,94549.03
2017-07-25T18:55:56.514Z,94567.47
2017-07-25T18:58:24.125Z,94573.87
2017-07-25T19:00:51.703Z,94557.66
2017-07-25T19:03:19.233Z,94538.35
2017-07-25T19:05:46.892Z,94517.69
2017-07-25T19:08:14.515Z,94514.09
2017-07-25T19:10:42.084Z,94523.63
2017-07-25T19:13:09.768Z,94522.80
2017-07-25T19:15:37.393Z,94531.56
2017-07-25T19:18:05.409Z,94540.66
2017-07-25T19:20:33.216Z,94536.73
2017-07-25T19:23:00.842Z,94536.59
2017-07-25T19:25:28.390Z,94534.57
2017-07-25T19:27:56.287Z,94532.84
2017-07-25T19:30:24.110Z,94540.49
2017-07-25T19:32:51.739Z,94552.10
2017-07-25T19:35:19.327Z,94553.24
2017-07-25T19:37:46.912Z,94556.80
2017-07-25T19:40:15.455Z,94556.55
2017-07-25T19:42:43.001Z,94547.67
2017-07-25T19:45:10.679Z,94547.61
2017-07-25T19:47:38.254Z,94550.23
2017-07-25T19:50:05.792Z,94547.08
2017-07-25T19:52:33.471Z,94550.53
2017-07-25T19:55:01.049Z,94555.12
2017-07-25T19:57:28.634Z,94553.26
2017-07-25T19:59:56.274Z,94550.92
2017-07-25T20:02:24.180Z,94550.12
2017-07-25T20:04:51.799Z,94551.96
2017-07-25T20:07:19.575Z,94556.03
2017-07-25T20:09:47.240Z,94558.55
2017-07-25T20:12:14.886Z,94555.94
2017-07-25T20:14:42.507Z,94555.41
2017-07-25T20:17:11.012Z,94552.66
2017-07-25T20:19:38.611Z,94544.02
2017-07-25T20:22:06.367Z,94531.63
2017-07-25T20:24:33.985Z,94544.89
2017-07-25T20:27:01.591Z,94544.73
2017-07-25T20:29:29.155Z,94542.01
2017-07-25T20:31:56.761Z,94545.80
2017-07-25T20:34:24.402Z,94538.63
2017-07-25T20:36:52.168Z,94555.17
2017-07-25T20:39:19.984Z,94557.09
2017-07-25T20:41:47.585Z,94549.48
2017-07-25T20:44:15.133Z,94540.06
2017-07-25T20:46:42.685Z,94545.05
2017-07-25T20:49:10.250Z,94538.34
2017-07-25T20:51:38.036Z,94534.13
2017-07-25T20:54:05.621Z,94533.63
2017-07-25T20:56:33.169Z,94537.73
2017-07-25T20:59:00.854Z,94544.34
2017-07-25T21:01:28.491Z,94555.39
2017-07-25T21:03:56.054Z,94561.95
2017-07-25T21:06:23.701Z,94558.83
2017-07-25T21:08:51.302Z,94563.57
2017-07-25T21:11:19.073Z,94562.66
2017-07-25T21:13:46.729Z,94567.88
2017-07-25T21:16:14.287Z,94567.23
2017-07-25T21:18:41.811Z,94571.98
2017-07-25T21:21:09.397Z,94563.78
2017-07-25T21:23:36.995Z,94561.11
2017-07-25T21:26:04.603Z,94562.70
2017-07-25T21:28:32.276Z,94562.67
2017-07-25T21:30:59.891Z,94562.92
2017-07-25T21:33:27.430Z,94570.84
2017-07-25T21:35:55.111Z,94571.06
2017-07-25T21:38:22.694Z,94561.46
2017-07-25T21:40:50.253Z,94567.03
2017-07-25T21:43:26.752Z,94558.64
2017-07-25T21:45:54.356Z,94561.56
2017-07-25T21:48:21.953Z,94560.80
2017-07-25T21:50:49.651Z,94551.69
2017-07-25T21:53:18.302Z,94548.64
2017-07-25T21:55:46.149Z,94553.86
2017-07-25T21:58:13.743Z,94548.86
2017-07-25T22:00:42.278Z,94546.98
2017-07-25T22:03:21.606Z,94552.20
2017-07-25T22:05:49.268Z,94556.36
2017-07-25T22:08:16.892Z,94555.03
2017-07-25T22:10:44.486Z,94550.33
2017-07-25T22:13:12.370Z,94556.20
2017-07-25T22:15:39.988Z,94556.91
2017-07-25T22:18:07.747Z,94559.94
2017-07-25T22:20:35.382Z,94557.41
2017-07-25T22:23:03.224Z,94563.58
2017-07-25T22:25:30.814Z,94563.01
2017-07-25T22:27:58.448Z,94577.19
2017-07-25T22:30:26.117Z,94569.72
2017-07-25T22:32:53.855Z,94567.26
2017-07-25T22:35:21.511Z,94563.08
2017-07-25T22:37:49.141Z,94571.79
2017-07-25T22:40:16.729Z,94566.74
2017-07-25T22:42:44.470Z,94561.28
2017-07-25T22:45:12.073Z,94561.59
2017-07-25T22:47:39.665Z,94566.05
2017-07-25T22:50:07.254Z,94557.09
2017-07-25T22:52:34.891Z,94551.64
2017-07-25T22:55:02.511Z,94555.01
2017-07-25T22:57:30.064Z,94553.24
2017-07-25T22:59:57.653Z,94554.28
2017-07-25T23:02:25.267Z,94555.61
2017-07-25T23:04:52.844Z,94563.21
2017-07-25T23:07:20.455Z,94560.38
2017-07-25T23:09:48.077Z,94557.05
2017-07-25T23:12:15.709Z,94548.91
2017-07-25T23:14:43.617Z,94550.53
2017-07-25T23:17:11.238Z,94551.98
2017-07-25T23:19:39.644Z,94555.36
2017-07-25T23:22:07.240Z,94543.27
2017-07-25T23:24:35.016Z,94541.86
2017-07-25T23:27:02.813Z,94539.34
2017-07-25T23:29:30.375Z,94540.38
2017-07-25T23:31:57.999Z,94545.44
2017-07-25T23:34:25.631Z,94527.55
2017-07-25T23:36:53.213Z,94536.58
2017-07-25T23:39:20.826Z,94537.50
2017-07-25T23:41:48.379Z,94529.93
2017-07-25T23:44:16.138Z,94530.47
2017-07-25T23:46:43.774Z,94528.85
2017-07-25T23:49:11.351Z,94532.39
2017-07-25T23:51:38.987Z,94532.29
2017-07-25T23:54:06.618Z,94529.04
2017-07-25T23:56:34.476Z,94541.97
2017-07-25T23:59:02.973Z,94532.83
